createdAt,value
2017-11-10T00:01:20.381Z,24.83
2017-11-10T00:03:48.685Z,27.93
2017-11-10T00:06:16.975Z,26.37
2017-11-10T00:08:46.026Z,25.13
2017-11-10T00:11:14.309Z,24.40
2017-11-10T00:13:42.597Z,25.23
2017-11-10T00:16:10.890Z,30.30
2017-11-10T00:18:39.183Z,28.63
2017-11-10T00:21:07.477Z,24.80
2017-11-10T00:23:35.765Z,26.77
2017-11-10T00:26:04.059Z,25.23
2017-11-10T00:28:32.341Z,29.57
2017-11-10T00:31:00.632Z,24.57
2017-11-10T00:33:28.921Z,27.15
2017-11-10T00:35:57.218Z,27.10
2017-11-10T00:38:25.506Z,23.00
2017-11-10T00:40:53.785Z,25.85
2017-11-10T00:43:22.070Z,25.83
2017-11-10T00:45:50.353Z,29.00
2017-11-10T00:48:18.645Z,30.33
2017-11-10T00:50:46.945Z,26.30
2017-11-10T00:53:15.245Z,28.57
2017-11-10T00:55:43.537Z,28.20
2017-11-10T00:58:11.813Z,28.10
2017-11-10T01:00:40.098Z,25.80
2017-11-10T01:03:08.378Z,31.97
2017-11-10T01:05:36.689Z,23.30
2017-11-10T01:08:12.355Z,25.20
2017-11-10T01:10:40.661Z,21.92
2017-11-10T01:13:08.949Z,19.23
2017-11-10T01:15:37.239Z,18.43
2017-11-10T01:18:05.514Z,21.03
2017-11-10T01:20:36.669Z,22.73
2017-11-10T01:23:04.952Z,21.92
2017-11-10T01:25:33.232Z,22.87
2017-11-10T01:28:01.520Z,22.90
2017-11-10T01:30:29.825Z,19.95
2017-11-10T01:32:58.865Z,21.73
2017-11-10T01:35:27.151Z,25.83
2017-11-10T01:37:55.442Z,23.27
2017-11-10T01:40:23.957Z,27.65
2017-11-10T01:42:53.018Z,23.40
2017-11-10T01:45:22.034Z,25.20
2017-11-10T01:47:51.085Z,23.60
2017-11-10T01:50:19.380Z,27.90
2017-11-10T01:52:47.667Z,25.30
2017-11-10T01:55:15.954Z,23.80
2017-11-10T01:57:44.241Z,24.17
2017-11-10T02:00:12.543Z,23.90
2017-11-10T02:02:40.829Z,24.50
2017-11-10T02:05:09.124Z,24.37
2017-11-10T02:07:38.520Z,24.50
2017-11-10T02:10:06.821Z,25.97
2017-11-10T02:12:35.754Z,22.85
2017-11-10T02:15:04.047Z,23.67
2017-11-10T02:17:32.340Z,27.87
2017-11-10T02:20:00.617Z,22.97
2017-11-10T02:22:28.911Z,24.80
2017-11-10T02:24:57.238Z,21.00
2017-11-10T02:27:25.525Z,23.60
2017-11-10T02:29:53.813Z,25.07
2017-11-10T02:32:22.094Z,26.42
2017-11-10T02:34:51.162Z,21.10
2017-11-10T02:37:19.453Z,23.60
2017-11-10T02:39:47.734Z,29.40
2017-11-10T02:42:16.802Z,26.35
2017-11-10T02:44:45.098Z,29.27
2017-11-10T02:47:13.382Z,22.30
2017-11-10T02:49:41.656Z,23.40
2017-11-10T02:52:09.944Z,24.10
2017-11-10T02:54:38.211Z,22.30
2017-11-10T02:57:06.495Z,29.00
2017-11-10T02:59:34.837Z,26.42
2017-11-10T03:02:03.150Z,21.90
2017-11-10T03:04:31.697Z,27.13
2017-11-10T03:07:00.007Z,25.57
2017-11-10T03:09:28.296Z,27.30
2017-11-10T03:11:56.581Z,24.50
2017-11-10T03:14:24.865Z,23.95
2017-11-10T03:16:53.140Z,23.93
2017-11-10T03:19:21.433Z,22.70
2017-11-10T03:21:49.713Z,23.00
2017-11-10T03:24:18.801Z,23.73
2017-11-10T03:26:48.010Z,25.23
2017-11-10T03:29:16.294Z,25.73
2017-11-10T03:31:44.582Z,25.90
2017-11-10T03:34:12.873Z,25.00
2017-11-10T03:36:41.162Z,21.73
2017-11-10T03:39:09.454Z,30.70
2017-11-10T03:41:37.737Z,20.50
2017-11-10T03:44:06.037Z,26.87
2017-11-10T03:46:35.090Z,26.05
2017-11-10T03:49:04.483Z,25.33
2017-11-10T03:51:32.774Z,24.70
2017-11-10T03:54:01.061Z,25.20
2017-11-10T03:56:29.352Z,22.80
2017-11-10T03:58:57.639Z,18.40
2017-11-10T04:01:25.933Z,19.67
2017-11-10T04:03:54.218Z,21.20
2017-11-10T04:06:22.519Z,19.90
2017-11-10T04:08:50.796Z,21.90
2017-11-10T04:11:19.077Z,21.63
2017-11-10T04:13:47.461Z,19.57
2017-11-10T04:16:15.764Z,17.90
2017-11-10T04:18:44.052Z,17.40
2017-11-10T04:21:13.193Z,17.83
2017-11-10T04:23:41.473Z,17.40
2017-11-10T04:26:09.770Z,22.77
2017-11-10T04:28:38.054Z,17.92
2017-11-10T04:31:06.341Z,17.87
2017-11-10T04:33:34.638Z,19.20
2017-11-10T04:36:02.932Z,18.10
2017-11-10T04:38:31.225Z,21.30
2017-11-10T04:40:59.556Z,26.10
2017-11-10T04:43:28.652Z,26.83
2017-11-10T04:45:56.956Z,25.10
2017-11-10T04:48:25.425Z,18.40
2017-11-10T04:50:53.748Z,17.00
2017-11-10T04:53:22.096Z,17.93
2017-11-10T04:55:50.905Z,13.60
2017-11-10T04:58:19.194Z,16.50
2017-11-10T05:00:48.093Z,16.57
2017-11-10T05:03:16.379Z,14.37
2017-11-10T05:05:45.427Z,18.23
2017-11-10T05:08:13.718Z,18.30
2017-11-10T05:10:42.015Z,15.27
2017-11-10T05:13:10.300Z,17.03
2017-11-10T05:15:38.622Z,15.33
2017-11-10T05:18:06.914Z,15.73
2017-11-10T05:20:35.244Z,13.25
2017-11-10T05:23:03.519Z,15.90
2017-11-10T05:25:31.805Z,17.47
2017-11-10T05:28:00.093Z,14.17
2017-11-10T05:30:29.586Z,11.40
2017-11-10T05:32:58.682Z,12.27
2017-11-10T05:35:26.990Z,10.88
2017-11-10T05:37:55.566Z,13.80
2017-11-10T05:40:23.893Z,12.03
2017-11-10T05:42:52.194Z,11.17
2017-11-10T05:45:20.726Z,11.10
2017-11-10T05:47:49.077Z,12.05
2017-11-10T05:50:17.356Z,11.77
2017-11-10T05:52:45.665Z,10.80
2017-11-10T05:55:13.942Z,9.20
2017-11-10T05:57:42.417Z,12.13
2017-11-10T06:00:10.705Z,9.47
2017-11-10T06:02:38.997Z,9.55
2017-11-10T06:05:07.289Z,10.97
2017-11-10T06:07:35.581Z,6.77
2017-11-10T06:10:04.646Z,8.85
2017-11-10T06:12:32.926Z,7.50
2017-11-10T06:15:01.196Z,9.70
2017-11-10T06:17:29.484Z,7.83
2017-11-10T06:19:57.757Z,9.30
2017-11-10T06:22:26.093Z,8.00
2017-11-10T06:24:54.397Z,7.80
2017-11-10T06:27:22.679Z,7.70
2017-11-10T06:29:50.958Z,8.85
2017-11-10T06:32:19.234Z,6.53
2017-11-10T06:34:47.520Z,5.63
2017-11-10T06:37:15.806Z,10.00
2017-11-10T06:39:44.857Z,7.30
2017-11-10T06:42:13.149Z,8.50
2017-11-10T06:44:41.437Z,5.40
2017-11-10T06:47:09.729Z,9.13
2017-11-10T06:49:38.922Z,6.57
2017-11-10T06:52:07.975Z,7.63
2017-11-10T06:54:36.260Z,8.43
2017-11-10T06:57:04.558Z,5.17
2017-11-10T06:59:32.846Z,7.67
2017-11-10T07:02:01.133Z,7.25
2017-11-10T07:04:30.174Z,7.03
2017-11-10T07:06:59.283Z,6.67
2017-11-10T07:09:27.575Z,6.73
2017-11-10T07:11:55.865Z,8.07
2017-11-10T07:14:24.913Z,6.60
2017-11-10T07:16:53.256Z,9.85
2017-11-10T07:19:22.311Z,7.40
2017-11-10T07:21:50.608Z,8.90
2017-11-10T07:24:19.649Z,7.97
2017-11-10T07:26:47.925Z,8.65
2017-11-10T07:29:16.193Z,6.77
2017-11-10T07:31:44.470Z,6.10
2017-11-10T07:34:12.745Z,6.60
2017-11-10T07:36:41.505Z,8.00
2017-11-10T07:39:10.553Z,9.10
2017-11-10T07:41:40.296Z,8.43
2017-11-10T07:44:08.576Z,8.40
2017-11-10T07:46:36.849Z,9.25
2017-11-10T07:49:06.636Z,10.70
2017-11-10T07:51:34.913Z,8.90
2017-11-10T07:54:03.205Z,9.67
2017-11-10T07:56:31.498Z,14.30
2017-11-10T07:58:59.799Z,12.65
2017-11-10T08:01:29.017Z,11.20
2017-11-10T08:03:57.297Z,10.00
2017-11-10T08:06:25.586Z,11.80
2017-11-10T08:08:53.883Z,8.43
2017-11-10T08:11:22.204Z,10.47
2017-11-10T08:13:50.500Z,10.10
2017-11-10T08:16:18.786Z,10.33
2017-11-10T08:18:47.061Z,8.50
2017-11-10T08:21:15.359Z,9.53
2017-11-10T08:23:43.650Z,9.93
2017-11-10T08:26:11.932Z,11.47
2017-11-10T08:28:40.218Z,12.20
2017-11-10T08:31:09.287Z,14.83
2017-11-10T08:33:37.574Z,12.80
2017-11-10T08:36:05.860Z,11.68
2017-11-10T08:38:34.169Z,10.80
2017-11-10T08:41:02.447Z,10.60
2017-11-10T08:43:30.738Z,10.40
2017-11-10T08:45:59.014Z,9.90
2017-11-10T08:48:27.318Z,10.70
2017-11-10T08:50:55.606Z,9.38
2017-11-10T08:53:24.660Z,9.95
2017-11-10T08:55:52.942Z,11.60
2017-11-10T08:58:21.218Z,9.90
2017-11-10T09:00:50.387Z,12.40
2017-11-10T09:03:18.677Z,11.50
2017-11-10T09:05:46.970Z,11.60
2017-11-10T09:08:15.293Z,10.90
2017-11-10T09:10:43.573Z,12.77
2017-11-10T09:13:12.622Z,10.63
2017-11-10T09:15:40.892Z,12.77
2017-11-10T09:18:09.162Z,11.00
2017-11-10T09:20:37.635Z,15.80
2017-11-10T09:23:05.920Z,13.07
2017-11-10T09:25:35.318Z,12.27
2017-11-10T09:28:13.909Z,15.37
2017-11-10T09:30:42.979Z,9.80
2017-11-10T09:33:21.169Z,14.30
2017-11-10T09:35:55.853Z,12.53
2017-11-10T09:38:29.523Z,12.80
2017-11-10T09:41:14.397Z,14.63
2017-11-10T09:43:48.213Z,12.13
2017-11-10T09:49:29.220Z,14.80
2017-11-10T09:55:23.965Z,16.20
2017-11-10T09:57:57.803Z,18.83
2017-11-10T10:00:32.955Z,14.77
2017-11-10T10:03:07.404Z,17.75
2017-11-10T10:05:41.228Z,13.13
2017-11-10T10:08:17.848Z,16.30
2017-11-10T10:14:00.412Z,15.10
2017-11-10T10:19:47.297Z,14.97
2017-11-10T10:22:21.159Z,16.10
2017-11-10T10:24:49.793Z,17.60
2017-11-10T10:27:19.711Z,15.97
2017-11-10T10:29:48.757Z,13.30
2017-11-10T10:32:17.039Z,14.47
2017-11-10T10:34:45.321Z,15.43
2017-11-10T10:37:13.601Z,19.90
2017-11-10T10:39:41.881Z,13.60
2017-11-10T10:42:10.190Z,10.90
2017-11-10T10:44:40.165Z,11.93
2017-11-10T10:47:08.449Z,12.60
2017-11-10T10:49:36.816Z,10.95
2017-11-10T10:52:05.109Z,8.63
2017-11-10T10:54:33.440Z,8.80
2017-11-10T10:57:01.733Z,11.60
2017-11-10T10:59:30.039Z,7.50
2017-11-10T11:01:59.253Z,9.10
2017-11-10T11:04:27.542Z,6.53
2017-11-10T11:06:55.834Z,9.90
2017-11-10T11:09:24.118Z,10.00
2017-11-10T11:11:52.408Z,5.50
2017-11-10T11:14:20.691Z,8.20
2017-11-10T11:16:48.970Z,8.87
2017-11-10T11:19:17.235Z,6.90
2017-11-10T11:21:45.529Z,10.77
2017-11-10T11:24:13.812Z,6.67
2017-11-10T11:26:43.025Z,5.60
2017-11-10T11:29:11.310Z,6.10
2017-11-10T11:31:39.680Z,5.43
2017-11-10T11:34:07.958Z,3.67
2017-11-10T11:36:36.246Z,4.73
2017-11-10T11:39:04.718Z,5.32
2017-11-10T11:41:32.999Z,5.00
2017-11-10T11:44:01.297Z,5.63
2017-11-10T11:46:29.584Z,3.13
2017-11-10T11:48:57.874Z,2.75
2017-11-10T11:51:26.169Z,3.90
2017-11-10T11:53:54.481Z,5.23
2017-11-10T11:56:22.764Z,3.60
2017-11-10T11:58:53.755Z,3.75
2017-11-10T12:01:22.049Z,2.20
2017-11-10T12:03:50.334Z,3.17
2017-11-10T12:06:18.627Z,3.93
2017-11-10T12:08:46.914Z,3.42
2017-11-10T12:11:15.193Z,5.63
2017-11-10T12:13:44.233Z,4.80
2017-11-10T12:16:12.517Z,4.97
2017-11-10T12:18:41.288Z,2.87
2017-11-10T12:21:09.853Z,2.80
2017-11-10T12:23:38.120Z,2.30
2017-11-10T12:26:06.405Z,3.37
2017-11-10T12:28:34.676Z,2.20
2017-11-10T12:31:02.969Z,2.33
2017-11-10T12:33:31.261Z,3.77
2017-11-10T12:35:59.534Z,2.73
2017-11-10T12:38:27.857Z,1.73
2017-11-10T12:40:56.390Z,2.77
2017-11-10T12:43:24.902Z,2.37
2017-11-10T12:45:53.177Z,3.00
2017-11-10T12:48:21.453Z,2.10
2017-11-10T12:50:49.726Z,3.43
2017-11-10T12:53:18.006Z,2.70
2017-11-10T12:55:47.289Z,2.23
2017-11-10T12:58:15.565Z,3.40
2017-11-10T13:00:43.853Z,2.40
2017-11-10T13:03:12.132Z,2.60
2017-11-10T13:05:40.409Z,2.50
2017-11-10T13:08:08.689Z,3.77
2017-11-10T13:10:36.973Z,2.00
2017-11-10T13:13:05.265Z,2.85
2017-11-10T13:15:34.319Z,2.07
2017-11-10T13:18:02.601Z,2.13
2017-11-10T13:20:30.890Z,3.60
2017-11-10T13:22:59.197Z,2.63
2017-11-10T13:25:27.464Z,2.23
2017-11-10T13:27:56.532Z,2.20
2017-11-10T13:30:24.831Z,3.50
2017-11-10T13:32:53.952Z,2.40
2017-11-10T13:35:22.226Z,5.80
2017-11-10T13:37:50.545Z,2.73
2017-11-10T13:40:18.830Z,2.10
2017-11-10T13:42:47.106Z,3.10
2017-11-10T13:45:15.385Z,2.27
2017-11-10T13:47:43.657Z,2.20
2017-11-10T13:50:11.933Z,1.33
2017-11-10T13:52:40.217Z,1.67
2017-11-10T13:55:08.497Z,1.87
2017-11-10T13:57:36.782Z,2.10
2017-11-10T14:00:05.067Z,3.30
2017-11-10T14:02:34.118Z,4.13
2017-11-10T14:05:02.417Z,5.95
2017-11-10T14:07:30.727Z,2.20
2017-11-10T14:09:59.009Z,2.37
2017-11-10T14:12:27.289Z,2.00
2017-11-10T14:14:55.586Z,3.00
2017-11-10T14:17:24.989Z,1.93
2017-11-10T14:19:53.259Z,1.60
2017-11-10T14:22:21.533Z,2.20
2017-11-10T14:24:49.807Z,2.93
2017-11-10T14:27:18.096Z,5.90
2017-11-10T14:29:46.365Z,1.57
2017-11-10T14:32:14.646Z,1.60
2017-11-10T14:34:42.929Z,1.23
2017-11-10T14:37:11.237Z,1.70
2017-11-10T14:39:39.537Z,3.57
2017-11-10T14:42:07.839Z,1.30
2017-11-10T14:44:36.121Z,1.90
2017-11-10T14:47:04.413Z,1.12
2017-11-10T14:49:32.696Z,1.77
2017-11-10T14:52:00.982Z,1.63
2017-11-10T14:54:29.269Z,1.27
2017-11-10T14:56:57.554Z,1.50
2017-11-10T14:59:25.849Z,2.20
2017-11-10T15:01:54.890Z,0.73
2017-11-10T15:04:23.187Z,1.13
2017-11-10T15:06:51.462Z,1.70
2017-11-10T15:09:19.741Z,0.80
2017-11-10T15:11:48.017Z,0.90
2017-11-10T15:14:16.305Z,0.97
2017-11-10T15:16:46.012Z,2.40
2017-11-10T15:19:14.285Z,1.00
2017-11-10T15:21:42.543Z,1.13
2017-11-10T15:24:11.430Z,0.70
2017-11-10T15:26:39.693Z,1.02
2017-11-10T15:29:07.984Z,1.87
2017-11-10T15:31:36.264Z,1.70
2017-11-10T15:34:04.553Z,2.27
2017-11-10T15:36:32.865Z,0.85
2017-11-10T15:39:01.159Z,3.13
2017-11-10T15:41:32.386Z,1.07
2017-11-10T15:44:00.669Z,0.97
2017-11-10T15:46:28.986Z,1.75
2017-11-10T15:48:57.277Z,0.77
2017-11-10T15:51:25.556Z,1.40
2017-11-10T15:53:53.842Z,2.15
2017-11-10T15:56:22.129Z,3.40
2017-11-10T15:58:51.174Z,2.43
2017-11-10T16:01:19.454Z,2.65
2017-11-10T16:03:47.738Z,2.83
2017-11-10T16:06:16.055Z,4.67
2017-11-10T16:08:45.101Z,2.97
2017-11-10T16:11:14.227Z,3.70
2017-11-10T16:13:42.492Z,2.80
2017-11-10T16:16:10.760Z,3.07
2017-11-10T16:18:39.037Z,3.60
2017-11-10T16:21:07.313Z,3.97
2017-11-10T16:23:35.650Z,3.33
2017-11-10T16:26:04.094Z,3.65
2017-11-10T16:28:32.728Z,4.93
2017-11-10T16:31:01.059Z,7.40
2017-11-10T16:33:29.494Z,2.43
2017-11-10T16:35:58.202Z,4.70
2017-11-10T16:38:26.606Z,6.20
2017-11-10T16:40:55.338Z,4.07
2017-11-10T16:43:23.850Z,4.45
2017-11-10T16:45:52.122Z,5.17
2017-11-10T16:48:20.600Z,4.30
2017-11-10T16:50:48.987Z,4.57
2017-11-10T16:53:17.286Z,2.25
2017-11-10T16:55:45.572Z,1.63
2017-11-10T16:58:13.874Z,2.97
2017-11-10T17:00:42.165Z,3.37
2017-11-10T17:03:10.466Z,2.30
2017-11-10T17:05:38.757Z,2.92
2017-11-10T17:08:07.093Z,1.70
2017-11-10T17:10:35.380Z,1.63
2017-11-10T17:13:03.681Z,2.00
2017-11-10T17:15:31.949Z,10.10
2017-11-10T17:18:00.322Z,9.77
2017-11-10T17:20:28.601Z,2.77
2017-11-10T17:22:56.949Z,3.85
2017-11-10T17:25:25.223Z,4.30
2017-11-10T17:27:53.534Z,5.23
2017-11-10T17:30:21.820Z,3.80
2017-11-10T17:32:53.077Z,3.37
2017-11-10T17:35:21.356Z,3.50
2017-11-10T17:37:49.638Z,6.80
2017-11-10T17:40:17.947Z,4.32
2017-11-10T17:42:46.308Z,6.37
2017-11-10T17:45:14.652Z,2.37
2017-11-10T17:47:43.015Z,5.37
2017-11-10T17:50:11.344Z,4.63
2017-11-10T17:52:40.377Z,2.30
2017-11-10T17:55:08.970Z,4.70
2017-11-10T17:57:38.166Z,2.97
2017-11-10T18:00:06.496Z,4.47
2017-11-10T18:02:34.795Z,4.30
2017-11-10T18:05:03.869Z,4.57
2017-11-10T18:07:32.168Z,4.83
2017-11-10T18:10:00.529Z,4.77
2017-11-10T18:12:28.806Z,2.75
2017-11-10T18:14:57.107Z,8.40
2017-11-10T18:17:25.597Z,2.62
2017-11-10T18:19:53.877Z,4.40
2017-11-10T18:22:22.157Z,7.73
2017-11-10T18:24:50.443Z,5.27
2017-11-10T18:27:18.753Z,3.63
2017-11-10T18:29:47.043Z,5.53
2017-11-10T18:32:15.982Z,6.73
2017-11-10T18:34:44.282Z,4.70
2017-11-10T18:37:12.582Z,5.97
2017-11-10T18:39:40.902Z,7.35
2017-11-10T18:42:09.402Z,4.43
2017-11-10T18:44:38.852Z,7.00
2017-11-10T18:47:07.874Z,2.87
2017-11-10T18:49:36.193Z,7.73
2017-11-10T18:52:04.567Z,5.63
2017-11-10T18:54:33.755Z,5.43
2017-11-10T18:57:02.304Z,5.63
2017-11-10T18:59:30.691Z,4.70
2017-11-10T19:01:59.358Z,6.30
2017-11-10T19:04:27.892Z,4.83
2017-11-10T19:06:57.431Z,5.77
2017-11-10T19:09:26.247Z,3.90
2017-11-10T19:11:54.825Z,6.20
2017-11-10T19:14:23.295Z,6.00
2017-11-10T19:16:52.311Z,4.23
2017-11-10T19:19:21.424Z,6.37
2017-11-10T19:21:50.526Z,9.70
2017-11-10T19:24:19.845Z,6.53
2017-11-10T19:26:49.048Z,7.03
2017-11-10T19:29:18.891Z,6.40
2017-11-10T19:31:48.684Z,6.63
2017-11-10T19:34:18.619Z,8.40
2017-11-10T19:36:48.632Z,5.40
2017-11-10T19:39:18.402Z,5.47
2017-11-10T19:41:48.102Z,5.53
2017-11-10T19:44:17.939Z,10.53
2017-11-10T19:46:47.824Z,6.37
2017-11-10T19:49:17.647Z,8.43
2017-11-10T19:51:47.479Z,7.10
2017-11-10T19:54:17.360Z,5.20
2017-11-10T19:56:47.418Z,19.47
2017-11-10T19:59:18.025Z,32.92
2017-11-10T20:01:47.872Z,7.23
2017-11-10T20:04:18.299Z,9.20
2017-11-10T20:06:48.104Z,6.33
2017-11-10T20:09:19.086Z,5.33
2017-11-10T20:11:48.951Z,6.67
2017-11-10T20:14:18.834Z,4.53
2017-11-10T20:16:48.664Z,6.17
2017-11-10T20:19:18.508Z,6.10
2017-11-10T20:21:49.075Z,4.63
2017-11-10T20:24:18.868Z,6.30
2017-11-10T20:26:48.775Z,9.83
2017-11-10T20:29:19.264Z,5.67
2017-11-10T20:31:49.265Z,7.40
2017-11-10T20:34:19.134Z,3.87
2017-11-10T20:36:48.838Z,9.13
2017-11-10T20:39:20.097Z,6.13
2017-11-10T20:41:49.902Z,8.20
2017-11-10T20:44:19.643Z,8.93
2017-11-10T20:46:49.870Z,7.63
2017-11-10T20:49:19.699Z,9.40
2017-11-10T20:51:49.508Z,7.07
2017-11-10T20:54:19.290Z,8.70
2017-11-10T20:56:49.812Z,13.50
2017-11-10T20:59:20.349Z,10.30
2017-11-10T21:01:50.120Z,7.10
2017-11-10T21:04:20.703Z,7.43
2017-11-10T21:06:50.552Z,5.63
2017-11-10T21:09:21.103Z,9.07
2017-11-10T21:11:51.705Z,11.10
2017-11-10T21:14:21.518Z,7.93
2017-11-10T21:16:51.718Z,9.68
2017-11-10T21:19:21.924Z,10.40
2017-11-10T21:21:51.685Z,7.30
2017-11-10T21:24:21.384Z,8.07
2017-11-10T21:26:51.327Z,9.63
2017-11-10T21:29:22.261Z,9.96
2017-11-10T21:31:52.128Z,7.37
2017-11-10T21:34:21.934Z,9.23
2017-11-10T21:36:51.726Z,8.30
2017-11-10T21:39:22.293Z,4.85
2017-11-10T21:41:52.191Z,5.93
2017-11-10T21:44:21.843Z,7.67
2017-11-10T21:46:51.516Z,9.87
2017-11-10T21:49:21.929Z,7.95
2017-11-10T21:51:51.596Z,9.47
2017-11-10T21:54:21.103Z,8.10
2017-11-10T21:56:51.205Z,13.03
2017-11-10T21:59:19.580Z,7.77
2017-11-10T22:01:47.875Z,11.23
2017-11-10T22:04:16.245Z,12.30
2017-11-10T22:06:45.424Z,6.87
2017-11-10T22:09:13.744Z,8.97
2017-11-10T22:11:42.034Z,9.13
2017-11-10T22:14:10.316Z,4.27
2017-11-10T22:16:38.584Z,7.70
2017-11-10T22:19:06.888Z,4.35
2017-11-10T22:21:35.173Z,7.82
2017-11-10T22:24:04.208Z,8.10
2017-11-10T22:26:32.512Z,3.30
2017-11-10T22:29:00.801Z,5.70
2017-11-10T22:31:29.076Z,6.90
2017-11-10T22:33:57.368Z,6.67
2017-11-10T22:36:26.423Z,12.47
2017-11-10T22:38:54.692Z,7.10
2017-11-10T22:41:23.937Z,8.05
2017-11-10T22:43:52.212Z,8.80
2017-11-10T22:46:20.496Z,13.10
2017-11-10T22:48:50.825Z,8.80
2017-11-10T22:51:19.100Z,10.20
2017-11-10T22:53:48.142Z,8.27
2017-11-10T22:56:16.418Z,8.37
2017-11-10T22:58:44.702Z,9.87
2017-11-10T23:01:12.989Z,4.70
2017-11-10T23:03:41.270Z,3.83
2017-11-10T23:06:09.534Z,12.97
2017-11-10T23:08:37.806Z,11.23
2017-11-10T23:11:06.078Z,8.20
2017-11-10T23:13:34.334Z,7.65
2017-11-10T23:16:02.599Z,10.77
2017-11-10T23:18:30.882Z,7.82
2017-11-10T23:20:59.157Z,5.53
2017-11-10T23:23:27.455Z,6.10
2017-11-10T23:25:55.753Z,8.07
2017-11-10T23:28:24.078Z,6.10
2017-11-10T23:30:52.368Z,6.57
2017-11-10T23:33:20.645Z,7.03
2017-11-10T23:35:48.938Z,5.47
2017-11-10T23:38:17.217Z,5.57
2017-11-10T23:40:45.497Z,8.57
2017-11-10T23:43:13.782Z,7.00
2017-11-10T23:45:42.089Z,8.60
2017-11-10T23:48:10.981Z,8.03
2017-11-10T23:50:39.266Z,6.50
2017-11-10T23:53:08.310Z,13.67
2017-11-10T23:55:36.590Z,9.00
2017-11-10T23:58:04.880Z,9.70
